createdAt,value
2022-12-03T00:00:26.674Z,101695.51
2022-12-03T00:03:52.152Z,101696.08
2022-12-03T00:06:57.681Z,101693.36
2022-12-03T00:10:03.258Z,101691.08
2022-12-03T00:13:08.657Z,101689.45
2022-12-03T00:16:14.084Z,101690.80
2022-12-03T00:19:19.433Z,101689.98
2022-12-03T00:22:24.682Z,101686.61
2022-12-03T00:25:30.016Z,101687.85
2022-12-03T00:28:35.311Z,101687.34
2022-12-03T00:31:42.115Z,101685.74
2022-12-03T00:34:47.617Z,101679.83
2022-12-03T00:37:52.846Z,101679.06
2022-12-03T00:40:58.137Z,101675.06
2022-12-03T00:44:04.050Z,101677.08
2022-12-03T00:47:09.890Z,101678.48
2022-12-03T00:50:15.303Z,101681.89
2022-12-03T00:53:20.583Z,101677.35
2022-12-03T00:56:26.046Z,101678.44
2022-12-03T00:59:31.568Z,101675.63
2022-12-03T01:02:36.817Z,101679.86
2022-12-03T01:05:42.523Z,101681.02
2022-12-03T01:08:47.898Z,101683.55
2022-12-03T01:11:53.312Z,101681.88
2022-12-03T01:14:58.591Z,101682.60
2022-12-03T01:18:03.979Z,101679.67
2022-12-03T01:21:09.159Z,101674.15
2022-12-03T01:24:14.810Z,101676.67
2022-12-03T01:27:20.117Z,101675.67
2022-12-03T01:30:25.472Z,101676.15
2022-12-03T01:33:30.919Z,101676.13
2022-12-03T01:36:36.206Z,101678.23
2022-12-03T01:39:41.561Z,101674.06
2022-12-03T01:42:46.874Z,101676.75
2022-12-03T01:45:52.557Z,101676.35
2022-12-03T01:48:57.999Z,101674.19
2022-12-03T01:52:03.316Z,101666.27
2022-12-03T01:55:13.982Z,101667.94
2022-12-03T01:58:21.139Z,101669.09
2022-12-03T02:01:26.570Z,101663.15
2022-12-03T02:04:31.900Z,101658.61
2022-12-03T02:07:37.362Z,101655.23
2022-12-03T02:10:42.706Z,101655.56
2022-12-03T02:13:48.741Z,101650.29
2022-12-03T02:16:54.108Z,101651.99
2022-12-03T02:19:59.865Z,101651.43
2022-12-03T02:23:11.440Z,101644.27
2022-12-03T02:26:16.745Z,101641.17
2022-12-03T02:29:22.174Z,101645.41
2022-12-03T02:32:27.530Z,101640.79
2022-12-03T02:35:34.073Z,101643.00
2022-12-03T02:38:39.649Z,101646.65
2022-12-03T02:42:02.547Z,101646.70
2022-12-03T02:45:10.288Z,101648.90
2022-12-03T02:48:17.722Z,101650.89
2022-12-03T02:51:23.490Z,101652.85
2022-12-03T02:54:28.820Z,101650.77
2022-12-03T02:57:34.763Z,101652.59
2022-12-03T03:00:40.710Z,101650.96
2022-12-03T03:03:47.055Z,101653.88
2022-12-03T03:06:53.023Z,101648.58
2022-12-03T03:09:59.081Z,101650.32
2022-12-03T03:13:07.675Z,101653.11
2022-12-03T03:16:13.109Z,101649.02
2022-12-03T03:19:18.529Z,101650.16
2022-12-03T03:22:32.799Z,101649.66
2022-12-03T03:25:38.691Z,101648.04
2022-12-03T03:28:45.959Z,101645.91
2022-12-03T03:31:51.521Z,101645.39
2022-12-03T03:34:57.157Z,101643.60
2022-12-03T03:38:02.551Z,101639.66
2022-12-03T03:41:09.255Z,101641.22
2022-12-03T03:44:15.051Z,101639.27
2022-12-03T03:47:20.706Z,101638.20
2022-12-03T03:50:26.841Z,101636.36
2022-12-03T03:53:32.583Z,101631.29
2022-12-03T03:56:38.236Z,101631.89
2022-12-03T03:59:44.073Z,101631.91
2022-12-03T04:02:49.419Z,101633.29
2022-12-03T04:05:54.760Z,101634.98
2022-12-03T04:09:00.119Z,101629.21
2022-12-03T04:12:23.416Z,101627.70
2022-12-03T04:15:29.070Z,101625.16
2022-12-03T04:18:43.713Z,101627.96
2022-12-03T04:22:11.716Z,101621.63
2022-12-03T04:25:34.453Z,101627.16
2022-12-03T04:28:51.715Z,101623.43
2022-12-03T04:32:14.876Z,101619.58
2022-12-03T04:35:38.131Z,101612.53
2022-12-03T04:38:43.391Z,101611.56
2022-12-03T04:41:48.701Z,101611.61
2022-12-03T04:44:54.308Z,101610.90
2022-12-03T04:47:59.775Z,101609.57
2022-12-03T04:51:05.029Z,101608.36
2022-12-03T04:54:10.442Z,101609.58
2022-12-03T04:57:15.898Z,101604.08
2022-12-03T05:00:21.464Z,101607.34
2022-12-03T05:03:26.842Z,101601.03
2022-12-03T05:06:32.317Z,101595.26
2022-12-03T05:09:37.652Z,101596.48
2022-12-03T05:12:43.284Z,101594.76
2022-12-03T05:15:48.662Z,101590.91
2022-12-03T05:18:54.050Z,101588.14
2022-12-03T05:21:59.419Z,101586.89
2022-12-03T05:25:05.002Z,101581.40
2022-12-03T05:28:10.536Z,101586.30
2022-12-03T05:31:16.160Z,101588.89
2022-12-03T05:34:21.728Z,101588.45
2022-12-03T05:37:26.867Z,101581.90
2022-12-03T05:40:32.120Z,101581.40
2022-12-03T05:43:37.474Z,101577.42
2022-12-03T05:46:42.889Z,101579.10
2022-12-03T05:49:48.224Z,101576.40
2022-12-03T05:52:53.827Z,101576.95
2022-12-03T05:55:59.255Z,101571.71
2022-12-03T05:59:04.901Z,101572.59
2022-12-03T06:02:10.199Z,101568.17
2022-12-03T06:05:17.094Z,101570.92
2022-12-03T06:08:22.501Z,101571.45
2022-12-03T06:11:29.841Z,101569.64
2022-12-03T06:14:35.837Z,101571.27
2022-12-03T06:17:41.406Z,101570.88
2022-12-03T06:20:46.682Z,101573.21
2022-12-03T06:23:52.085Z,101578.55
2022-12-03T06:26:57.348Z,101575.21
2022-12-03T06:30:02.912Z,101574.14
2022-12-03T06:33:08.451Z,101574.95
2022-12-03T06:36:15.109Z,101577.30
2022-12-03T06:39:24.637Z,101579.95
2022-12-03T06:42:30.137Z,101581.77
2022-12-03T06:45:35.548Z,101582.02
2022-12-03T06:48:40.906Z,101580.19
2022-12-03T06:51:46.027Z,101580.95
2022-12-03T06:54:51.570Z,101576.89
2022-12-03T06:57:57.162Z,101569.54
2022-12-03T07:01:02.674Z,101574.42
2022-12-03T07:04:08.255Z,101575.95
2022-12-03T07:07:13.552Z,101569.50
2022-12-03T07:10:19.026Z,101569.14
2022-12-03T07:13:24.402Z,101569.98
2022-12-03T07:16:30.692Z,101566.19
2022-12-03T07:19:36.021Z,101564.75
2022-12-03T07:22:41.381Z,101560.92
2022-12-03T07:25:46.679Z,101563.95
2022-12-03T07:28:52.142Z,101561.43
2022-12-03T07:31:57.539Z,101560.11
2022-12-03T07:35:02.970Z,101557.68
2022-12-03T07:38:08.284Z,101557.46
2022-12-03T07:41:13.741Z,101559.01
2022-12-03T07:44:19.030Z,101561.30
2022-12-03T07:47:24.546Z,101560.41
2022-12-03T07:50:32.442Z,101561.08
2022-12-03T07:53:37.987Z,101563.45
2022-12-03T07:56:43.260Z,101563.02
2022-12-03T07:59:48.480Z,101560.95
2022-12-03T08:02:53.746Z,101561.30
2022-12-03T08:05:59.392Z,101562.45
2022-12-03T08:09:04.768Z,101559.54
2022-12-03T08:12:16.343Z,101555.64
2022-12-03T08:15:24.116Z,101558.30
2022-12-03T08:18:29.627Z,101553.25
2022-12-03T08:21:36.485Z,101547.27
2022-12-03T08:24:42.323Z,101545.65
2022-12-03T08:27:47.693Z,101548.66
2022-12-03T08:31:00.148Z,101548.48
2022-12-03T08:34:16.592Z,101550.06
2022-12-03T08:37:21.920Z,101553.15
2022-12-03T08:40:29.422Z,101550.70
2022-12-03T08:43:35.730Z,101548.77
2022-12-03T08:46:41.231Z,101550.74
2022-12-03T08:49:48.788Z,101550.59
2022-12-03T08:52:54.889Z,101549.99
2022-12-03T08:56:01.163Z,101549.17
2022-12-03T08:59:19.139Z,101554.23
2022-12-03T09:02:27.840Z,101552.13
2022-12-03T09:05:33.660Z,101549.20
2022-12-03T09:08:38.971Z,101545.80
2022-12-03T09:11:44.388Z,101543.81
2022-12-03T09:14:49.673Z,101536.12
2022-12-03T09:17:55.033Z,101534.70
2022-12-03T09:21:00.410Z,101532.51
2022-12-03T09:24:05.953Z,101530.21
2022-12-03T09:27:11.294Z,101532.51
2022-12-03T09:30:17.312Z,101532.05
2022-12-03T09:33:22.704Z,101523.95
2022-12-03T09:36:28.074Z,101526.35
2022-12-03T09:39:33.520Z,101523.52
2022-12-03T09:42:39.219Z,101525.19
2022-12-03T09:45:46.221Z,101527.00
2022-12-03T09:48:51.681Z,101521.63
2022-12-03T09:51:58.532Z,101521.36
2022-12-03T09:55:06.682Z,101516.13
2022-12-03T09:58:13.049Z,101516.02
2022-12-03T10:01:18.861Z,101513.85
2022-12-03T10:04:25.080Z,101508.48
2022-12-03T10:07:30.663Z,101504.08
2022-12-03T10:10:36.645Z,101506.97
2022-12-03T10:13:42.360Z,101502.95
2022-12-03T10:16:47.888Z,101499.45
2022-12-03T10:19:53.512Z,101492.67
2022-12-03T10:22:59.011Z,101486.05
2022-12-03T10:26:04.729Z,101477.39
2022-12-03T10:29:14.541Z,101473.89
2022-12-03T10:32:19.884Z,101470.92
2022-12-03T10:35:26.740Z,101473.15
2022-12-03T10:38:32.424Z,101469.30
2022-12-03T10:41:38.809Z,101468.61
2022-12-03T10:44:44.183Z,101470.18
2022-12-03T10:48:05.931Z,101470.90
2022-12-03T10:51:15.534Z,101472.63
2022-12-03T10:54:22.675Z,101472.05
2022-12-03T10:57:28.168Z,101469.99
2022-12-03T11:00:33.639Z,101466.02
2022-12-03T11:03:39.089Z,101459.16
2022-12-03T11:06:44.482Z,101454.21
2022-12-03T11:09:52.014Z,101456.04
2022-12-03T11:13:14.776Z,101460.02
2022-12-03T11:16:37.742Z,101457.18
2022-12-03T11:19:52.736Z,101463.09
2022-12-03T11:22:58.563Z,101463.20
2022-12-03T11:26:03.943Z,101461.95
2022-12-03T11:29:14.431Z,101454.14
2022-12-03T11:32:37.046Z,101454.59
2022-12-03T11:36:08.623Z,101447.18
2022-12-03T11:39:14.207Z,101447.98
2022-12-03T11:42:33.201Z,101442.63
2022-12-03T11:45:39.660Z,101439.30
2022-12-03T11:48:46.382Z,101435.27
2022-12-03T11:51:51.949Z,101431.34
2022-12-03T11:54:59.380Z,101426.90
2022-12-03T11:58:16.168Z,101428.61
2022-12-03T12:01:36.937Z,101430.79
2022-12-03T12:04:47.631Z,101429.04
2022-12-03T12:07:53.669Z,101425.11
2022-12-03T12:10:59.827Z,101423.27
2022-12-03T12:14:05.884Z,101425.54
2022-12-03T12:17:24.793Z,101427.61
2022-12-03T12:20:30.209Z,101423.25
2022-12-03T12:23:35.510Z,101422.55
2022-12-03T12:26:50.891Z,101422.46
2022-12-03T12:29:57.802Z,101417.45
2022-12-03T12:33:14.125Z,101417.30
2022-12-03T12:36:19.481Z,101419.29
2022-12-03T12:39:24.804Z,101421.16
2022-12-03T12:42:31.679Z,101416.52
2022-12-03T12:45:38.256Z,101422.85
2022-12-03T12:48:43.727Z,101428.61
2022-12-03T12:51:49.772Z,101431.08
2022-12-03T12:54:56.146Z,101419.79
2022-12-03T12:58:07.223Z,101410.52
2022-12-03T13:01:21.219Z,101408.09
2022-12-03T13:04:29.210Z,101404.73
2022-12-03T13:07:34.886Z,101402.15
2022-12-03T13:10:43.470Z,101398.77
2022-12-03T13:13:49.090Z,101401.61
2022-12-03T13:16:56.250Z,101406.13
2022-12-03T13:20:07.552Z,101413.51
2022-12-03T13:23:23.266Z,101410.79
2022-12-03T13:26:38.577Z,101412.42
2022-12-03T13:29:45.717Z,101406.66
2022-12-03T13:32:51.057Z,101401.62
2022-12-03T13:35:57.089Z,101397.95
2022-12-03T13:39:03.263Z,101401.98
2022-12-03T13:42:34.392Z,101399.64
2022-12-03T13:45:41.624Z,101401.34
2022-12-03T13:48:47.613Z,101398.80
2022-12-03T13:51:53.023Z,101396.83
2022-12-03T13:54:58.473Z,101396.41
2022-12-03T13:58:03.698Z,101396.61
2022-12-03T14:01:09.254Z,101397.58
2022-12-03T14:04:14.766Z,101399.21
2022-12-03T14:07:20.166Z,101399.11
2022-12-03T14:10:25.604Z,101394.16
2022-12-03T14:13:30.940Z,101393.33
2022-12-03T14:16:36.336Z,101396.73
2022-12-03T14:19:41.592Z,101395.27
2022-12-03T14:22:47.159Z,101390.86
2022-12-03T14:25:53.691Z,101390.55
2022-12-03T14:28:59.122Z,101384.05
2022-12-03T14:32:04.768Z,101375.92
2022-12-03T14:35:10.821Z,101372.95
2022-12-03T14:38:16.186Z,101374.89
2022-12-03T14:41:39.425Z,101380.19
2022-12-03T14:44:45.682Z,101378.20
2022-12-03T14:47:51.055Z,101384.14
2022-12-03T14:50:56.411Z,101386.02
2022-12-03T14:54:01.796Z,101385.90
2022-12-03T14:57:07.133Z,101387.14
2022-12-03T15:00:13.580Z,101388.56
2022-12-03T15:03:18.964Z,101392.45
2022-12-03T15:06:24.324Z,101396.36
2022-12-03T15:09:29.769Z,101390.63
2022-12-03T15:12:35.097Z,101392.77
2022-12-03T15:15:40.479Z,101391.00
2022-12-03T15:18:45.772Z,101388.11
2022-12-03T15:21:51.259Z,101384.95
2022-12-03T15:24:57.052Z,101385.40
2022-12-03T15:28:05.298Z,101388.11
2022-12-03T15:31:10.874Z,101392.79
2022-12-03T15:34:22.061Z,101389.27
2022-12-03T15:37:28.073Z,101391.95
2022-12-03T15:40:33.459Z,101392.85
2022-12-03T15:43:38.739Z,101393.40
2022-12-03T15:46:44.412Z,101389.77
2022-12-03T15:49:49.745Z,101392.08
2022-12-03T15:52:55.262Z,101385.52
2022-12-03T15:56:00.728Z,101382.19
2022-12-03T15:59:06.056Z,101378.27
2022-12-03T16:02:11.725Z,101378.97
2022-12-03T16:05:17.471Z,101382.08
2022-12-03T16:08:22.957Z,101376.77
2022-12-03T16:11:28.398Z,101378.57
2022-12-03T16:14:33.798Z,101380.08
2022-12-03T16:17:39.109Z,101382.14
2022-12-03T16:20:44.429Z,101385.25
2022-12-03T16:23:49.761Z,101384.73
2022-12-03T16:26:54.965Z,101386.98
2022-12-03T16:30:00.322Z,101382.81
2022-12-03T16:33:05.829Z,101383.61
2022-12-03T16:36:11.710Z,101387.77
2022-12-03T16:39:17.591Z,101386.14
2022-12-03T16:42:24.033Z,101387.70
2022-12-03T16:46:01.518Z,101386.29
2022-12-03T16:49:08.209Z,101395.33
2022-12-03T16:52:13.443Z,101397.10
2022-12-03T16:55:18.875Z,101399.08
2022-12-03T16:58:24.268Z,101398.21
2022-12-03T17:01:29.706Z,101395.86
2022-12-03T17:04:35.471Z,101393.79
2022-12-03T17:07:40.784Z,101388.09
2022-12-03T17:10:46.251Z,101386.85
2022-12-03T17:13:51.731Z,101384.61
2022-12-03T17:16:57.187Z,101383.41
2022-12-03T17:20:02.652Z,101377.77
2022-12-03T17:23:08.410Z,101371.23
2022-12-03T17:26:13.788Z,101360.14
2022-12-03T17:29:19.130Z,101370.23
2022-12-03T17:32:24.386Z,101370.72
2022-12-03T17:35:29.971Z,101371.84
2022-12-03T17:38:39.000Z,101366.38
2022-12-03T17:41:44.742Z,101372.67
2022-12-03T17:44:50.215Z,101374.21
2022-12-03T17:47:55.512Z,101372.88
2022-12-03T17:51:01.742Z,101373.13
2022-12-03T17:54:07.313Z,101376.68
2022-12-03T17:57:12.729Z,101372.33
2022-12-03T18:00:18.592Z,101372.33
2022-12-03T18:03:23.893Z,101375.21
2022-12-03T18:06:29.262Z,101371.12
2022-12-03T18:09:34.637Z,101374.49
2022-12-03T18:12:39.796Z,101374.33
2022-12-03T18:15:45.297Z,101375.14
2022-12-03T18:18:55.134Z,101370.81
2022-12-03T18:22:02.500Z,101364.89
2022-12-03T18:25:08.613Z,101361.70
2022-12-03T18:28:13.878Z,101354.70
2022-12-03T18:31:20.923Z,101357.29
2022-12-03T18:34:26.227Z,101361.05
2022-12-03T18:37:32.693Z,101356.70
2022-12-03T18:40:38.487Z,101356.84
2022-12-03T18:43:43.860Z,101349.64
2022-12-03T18:46:54.216Z,101349.50
2022-12-03T18:50:00.079Z,101352.63
2022-12-03T18:53:05.737Z,101351.20
2022-12-03T18:56:11.481Z,101345.69
2022-12-03T18:59:16.960Z,101350.81
2022-12-03T19:05:48.529Z,101359.42
2022-12-03T19:08:54.808Z,101363.61
2022-12-03T19:12:00.237Z,101364.39
2022-12-03T19:15:06.517Z,101363.35
2022-12-03T19:18:11.817Z,101359.88
2022-12-03T19:21:17.746Z,101358.77
2022-12-03T19:24:24.804Z,101358.88
2022-12-03T19:27:31.010Z,101360.54
2022-12-03T19:30:36.310Z,101367.89
2022-12-03T19:33:42.629Z,101369.52
2022-12-03T19:36:48.316Z,101364.54
2022-12-03T19:39:55.029Z,101360.88
2022-12-03T19:43:00.730Z,101360.23
2022-12-03T19:46:07.698Z,101365.98
2022-12-03T19:49:13.591Z,101368.36
2022-12-03T19:52:18.894Z,101370.10
2022-12-03T19:55:24.260Z,101367.77
2022-12-03T19:58:29.985Z,101364.21
2022-12-03T20:01:36.131Z,101368.16
2022-12-03T20:04:41.487Z,101360.90
2022-12-03T20:07:46.906Z,101359.76
2022-12-03T20:10:52.214Z,101366.59
2022-12-03T20:13:58.610Z,101369.47
2022-12-03T20:17:03.943Z,101371.42
2022-12-03T20:20:10.393Z,101370.29
2022-12-03T20:23:15.748Z,101367.39
2022-12-03T20:26:22.431Z,101366.65
2022-12-03T20:29:27.620Z,101364.43
2022-12-03T20:32:33.050Z,101365.36
2022-12-03T20:35:38.654Z,101363.10
2022-12-03T20:38:43.996Z,101365.22
2022-12-03T20:41:49.229Z,101358.59
2022-12-03T20:44:55.047Z,101354.21
2022-12-03T20:48:00.348Z,101349.27
2022-12-03T20:51:06.843Z,101347.95
2022-12-03T20:54:12.316Z,101343.63
2022-12-03T20:57:17.713Z,101337.08
2022-12-03T21:00:23.286Z,101335.70
2022-12-03T21:03:28.748Z,101337.42
2022-12-03T21:06:35.999Z,101334.65
2022-12-03T21:09:41.422Z,101339.30
2022-12-03T21:12:46.925Z,101344.94
2022-12-03T21:16:02.602Z,101344.03
2022-12-03T21:19:08.159Z,101339.52
2022-12-03T21:22:13.821Z,101338.18
2022-12-03T21:25:19.219Z,101339.00
2022-12-03T21:28:24.564Z,101334.58
2022-12-03T21:31:31.824Z,101335.90
2022-12-03T21:34:37.576Z,101336.39
2022-12-03T21:37:43.083Z,101334.56
2022-12-03T21:40:49.031Z,101338.02
2022-12-03T21:43:54.510Z,101341.25
2022-12-03T21:47:10.361Z,101332.90
2022-12-03T21:50:20.208Z,101332.02
2022-12-03T21:53:25.563Z,101327.76
2022-12-03T21:56:31.972Z,101321.45
2022-12-03T21:59:37.303Z,101323.22
2022-12-03T22:02:42.959Z,101320.76
2022-12-03T22:05:48.397Z,101318.05
2022-12-03T22:08:53.809Z,101315.11
2022-12-03T22:12:00.910Z,101311.52
2022-12-03T22:15:06.983Z,101305.96
2022-12-03T22:18:12.469Z,101308.28
2022-12-03T22:21:19.151Z,101306.76
2022-12-03T22:24:24.637Z,101306.59
2022-12-03T22:27:29.937Z,101305.37
2022-12-03T22:30:35.296Z,101301.36
2022-12-03T22:33:40.743Z,101296.38
2022-12-03T22:36:46.164Z,101293.23
2022-12-03T22:39:51.575Z,101294.30
2022-12-03T22:42:56.980Z,101294.52
2022-12-03T22:46:02.460Z,101296.64
2022-12-03T22:49:08.365Z,101297.85
2022-12-03T22:52:13.804Z,101299.34
2022-12-03T22:55:19.106Z,101295.70
2022-12-03T22:58:24.540Z,101295.80
2022-12-03T23:01:30.908Z,101295.71
2022-12-03T23:04:36.297Z,101296.30
2022-12-03T23:07:41.570Z,101296.14
2022-12-03T23:10:49.383Z,101300.79
2022-12-03T23:13:55.110Z,101297.75
2022-12-03T23:17:00.351Z,101290.45
2022-12-03T23:20:07.208Z,101283.98
2022-12-03T23:23:12.768Z,101280.75
2022-12-03T23:26:18.303Z,101276.00
2022-12-03T23:29:23.603Z,101274.34
2022-12-03T23:32:28.996Z,101266.52
2022-12-03T23:35:34.574Z,101267.42
2022-12-03T23:38:40.247Z,101261.39
2022-12-03T23:41:45.548Z,101254.23
2022-12-03T23:44:51.027Z,101246.61
2022-12-03T23:47:58.344Z,101242.92
2022-12-03T23:51:08.066Z,101241.27
2022-12-03T23:54:13.401Z,101240.14
2022-12-03T23:57:19.167Z,101238.44
